View Park, California
Current Conditions -  °F | °C
As of 5:47 PM on Friday 21 Nov 2014 (Local Time) from KCQT Reporting Station
Clear Clear  
Wind Chill: 65°   Ceiling: Unl
Heat Index: 65°   Visibility: 10mi
Dew Point: 49°   Wind: 0mph
Humidity: 56%   Direction: NA
Pressure: 29.97"   Gusts: NA
Location:  33.9885°N, 118.334°W
Report Text: KCQT 220147Z AUTO 00000KT 10SM CLR 18/09 A2997 RMK AO2 SLP148 T01830094
Loading
Personal Weather Stations






























Interactive Weather Map New forecast layout! Learn more

10-Day Weather Forecast

Advertisements
Track Severe Weather on mobile